sensor_id;sensor_type;location;lat;lon;timestamp;P1;P2;P0
54869;PMS5003;40756;-37.950;145.008;2023-05-10T00:00:10;2;1;
54869;PMS5003;40756;-37.950;145.008;2023-05-10T00:02:40;2;2;
54869;PMS5003;40756;-37.950;145.008;2023-05-10T00:05:10;0;0;
54869;PMS5003;40756;-37.950;145.008;2023-05-10T00:07:39;1;1;
54869;PMS5003;40756;-37.950;145.008;2023-05-10T00:10:09;1;0;
54869;PMS5003;40756;-37.950;145.008;2023-05-10T00:12:40;1;0;
54869;PMS5003;40756;-37.950;145.008;2023-05-10T00:15:09;1;1;
54869;PMS5003;40756;-37.950;145.008;2023-05-10T00:17:39;1;0;
54869;PMS5003;40756;-37.950;145.008;2023-05-10T00:20:09;2;1;
54869;PMS5003;40756;-37.950;145.008;2023-05-10T00:22:39;2;2;
54869;PMS5003;40756;-37.950;145.008;2023-05-10T00:25:09;4;3;
54869;PMS5003;40756;-37.950;145.008;2023-05-10T00:27:38;5;4;
54869;PMS5003;40756;-37.950;145.008;2023-05-10T00:30:08;1;1;
54869;PMS5003;40756;-37.950;145.008;2023-05-10T00:32:38;0;0;
54869;PMS5003;40756;-37.950;145.008;2023-05-10T00:35:08;2;2;
54869;PMS5003;40756;-37.950;145.008;2023-05-10T00:37:37;8;8;
54869;PMS5003;40756;-37.950;145.008;2023-05-10T00:40:07;5;5;
54869;PMS5003;40756;-37.950;145.008;2023-05-10T00:42:38;1;0;
54869;PMS5003;40756;-37.950;145.008;2023-05-10T00:45:08;1;0;
54869;PMS5003;40756;-37.950;145.008;2023-05-10T00:47:37;1;1;
54869;PMS5003;40756;-37.950;145.008;2023-05-10T00:50:08;0;0;
54869;PMS5003;40756;-37.950;145.008;2023-05-10T00:52:38;1;1;
54869;PMS5003;40756;-37.950;145.008;2023-05-10T00:55:08;0;0;
54869;PMS5003;40756;-37.950;145.008;2023-05-10T00:57:39;1;1;
54869;PMS5003;40756;-37.950;145.008;2023-05-10T01:00:09;1;1;
54869;PMS5003;40756;-37.950;145.008;2023-05-10T01:02:39;1;1;
54869;PMS5003;40756;-37.950;145.008;2023-05-10T01:05:09;1;1;
54869;PMS5003;40756;-37.950;145.008;2023-05-10T01:07:39;2;1;
54869;PMS5003;40756;-37.950;145.008;2023-05-10T01:10:09;1;1;
54869;PMS5003;40756;-37.950;145.008;2023-05-10T01:12:39;4;3;
54869;PMS5003;40756;-37.950;145.008;2023-05-10T01:15:10;2;2;
54869;PMS5003;40756;-37.950;145.008;2023-05-10T01:17:42;1;1;
54869;PMS5003;40756;-37.950;145.008;2023-05-10T01:20:13;2;2;
54869;PMS5003;40756;-37.950;145.008;2023-05-10T01:26:11;1;1;
54869;PMS5003;40756;-37.950;145.008;2023-05-10T01:29:01;0;0;
54869;PMS5003;40756;-37.950;145.008;2023-05-10T01:32:14;2;2;
54869;PMS5003;40756;-37.950;145.008;2023-05-10T01:34:54;2;2;
54869;PMS5003;40756;-37.950;145.008;2023-05-10T01:37:31;0;0;
54869;PMS5003;40756;-37.950;145.008;2023-05-10T01:40:10;2;1;
54869;PMS5003;40756;-37.950;145.008;2023-05-10T01:42:47;2;1;
54869;PMS5003;40756;-37.950;145.008;2023-05-10T01:45:23;1;0;
54869;PMS5003;40756;-37.950;145.008;2023-05-10T01:48:03;2;1;
54869;PMS5003;40756;-37.950;145.008;2023-05-10T01:50:38;1;1;
54869;PMS5003;40756;-37.950;145.008;2023-05-10T01:53:11;1;1;
54869;PMS5003;40756;-37.950;145.008;2023-05-10T01:55:46;0;0;
54869;PMS5003;40756;-37.950;145.008;2023-05-10T01:58:19;1;1;
54869;PMS5003;40756;-37.950;145.008;2023-05-10T02:00:52;0;0;
54869;PMS5003;40756;-37.950;145.008;2023-05-10T02:03:23;0;0;
54869;PMS5003;40756;-37.950;145.008;2023-05-10T02:05:54;1;1;
54869;PMS5003;40756;-37.950;145.008;2023-05-10T02:08:25;0;0;
54869;PMS5003;40756;-37.950;145.008;2023-05-10T02:10:55;0;0;
54869;PMS5003;40756;-37.950;145.008;2023-05-10T02:13:26;0;0;
54869;PMS5003;40756;-37.950;145.008;2023-05-10T02:15:57;0;0;
54869;PMS5003;40756;-37.950;145.008;2023-05-10T02:18:29;0;0;
54869;PMS5003;40756;-37.950;145.008;2023-05-10T02:21:01;3;3;
54869;PMS5003;40756;-37.950;145.008;2023-05-10T02:23:32;0;0;
54869;PMS5003;40756;-37.950;145.008;2023-05-10T02:26:02;1;1;
54869;PMS5003;40756;-37.950;145.008;2023-05-10T02:28:33;2;1;
54869;PMS5003;40756;-37.950;145.008;2023-05-10T02:31:05;1;1;
54869;PMS5003;40756;-37.950;145.008;2023-05-10T02:33:35;1;1;
54869;PMS5003;40756;-37.950;145.008;2023-05-10T02:36:07;1;1;
54869;PMS5003;40756;-37.950;145.008;2023-05-10T02:38:39;0;0;
54869;PMS5003;40756;-37.950;145.008;2023-05-10T02:41:09;1;1;
54869;PMS5003;40756;-37.950;145.008;2023-05-10T02:43:40;0;0;
54869;PMS5003;40756;-37.950;145.008;2023-05-10T02:46:11;0;0;
54869;PMS5003;40756;-37.950;145.008;2023-05-10T02:48:41;1;0;
54869;PMS5003;40756;-37.950;145.008;2023-05-10T02:51:11;1;1;
54869;PMS5003;40756;-37.950;145.008;2023-05-10T02:53:43;0;0;
54869;PMS5003;40756;-37.950;145.008;2023-05-10T02:56:15;0;0;
54869;PMS5003;40756;-37.950;145.008;2023-05-10T02:58:51;1;0;
54869;PMS5003;40756;-37.950;145.008;2023-05-10T03:01:20;1;1;
54869;PMS5003;40756;-37.950;145.008;2023-05-10T03:03:50;0;0;
54869;PMS5003;40756;-37.950;145.008;2023-05-10T03:06:19;1;1;
54869;PMS5003;40756;-37.950;145.008;2023-05-10T03:08:49;0;0;
54869;PMS5003;40756;-37.950;145.008;2023-05-10T03:11:26;0;0;
54869;PMS5003;40756;-37.950;145.008;2023-05-10T03:14:09;0;0;
54869;PMS5003;40756;-37.950;145.008;2023-05-10T03:16:46;0;0;
54869;PMS5003;40756;-37.950;145.008;2023-05-10T03:19:22;0;0;
54869;PMS5003;40756;-37.950;145.008;2023-05-10T03:21:54;0;0;
54869;PMS5003;40756;-37.950;145.008;2023-05-10T03:24:31;0;0;
54869;PMS5003;40756;-37.950;145.008;2023-05-10T03:27:02;0;0;
54869;PMS5003;40756;-37.950;145.008;2023-05-10T03:29:33;1;0;
54869;PMS5003;40756;-37.950;145.008;2023-05-10T03:32:03;0;0;
54869;PMS5003;40756;-37.950;145.008;2023-05-10T03:34:32;0;0;
54869;PMS5003;40756;-37.950;145.008;2023-05-10T03:37:08;0;0;
54869;PMS5003;40756;-37.950;145.008;2023-05-10T03:39:38;0;0;
54869;PMS5003;40756;-37.950;145.008;2023-05-10T03:42:07;0;0;
54869;PMS5003;40756;-37.950;145.008;2023-05-10T03:44:37;1;0;
54869;PMS5003;40756;-37.950;145.008;2023-05-10T03:47:07;0;0;
54869;PMS5003;40756;-37.950;145.008;2023-05-10T03:49:36;1;0;
54869;PMS5003;40756;-37.950;145.008;2023-05-10T03:52:06;1;1;
54869;PMS5003;40756;-37.950;145.008;2023-05-10T03:54:36;1;0;
54869;PMS5003;40756;-37.950;145.008;2023-05-10T03:57:06;0;0;
54869;PMS5003;40756;-37.950;145.008;2023-05-10T03:59:35;1;1;
54869;PMS5003;40756;-37.950;145.008;2023-05-10T04:02:05;0;0;
54869;PMS5003;40756;-37.950;145.008;2023-05-10T04:04:34;1;1;
54869;PMS5003;40756;-37.950;145.008;2023-05-10T04:07:04;0;0;
54869;PMS5003;40756;-37.950;145.008;2023-05-10T04:09:34;0;0;
54869;PMS5003;40756;-37.950;145.008;2023-05-10T04:12:03;0;0;
54869;PMS5003;40756;-37.950;145.008;2023-05-10T04:14:33;2;2;
54869;PMS5003;40756;-37.950;145.008;2023-05-10T04:17:02;1;1;
54869;PMS5003;40756;-37.950;145.008;2023-05-10T04:19:32;1;1;
54869;PMS5003;40756;-37.950;145.008;2023-05-10T04:22:02;0;0;
54869;PMS5003;40756;-37.950;145.008;2023-05-10T04:24:32;1;1;
54869;PMS5003;40756;-37.950;145.008;2023-05-10T04:27:02;0;0;
54869;PMS5003;40756;-37.950;145.008;2023-05-10T04:29:31;1;0;
54869;PMS5003;40756;-37.950;145.008;2023-05-10T04:32:01;0;0;
54869;PMS5003;40756;-37.950;145.008;2023-05-10T04:34:30;0;0;
54869;PMS5003;40756;-37.950;145.008;2023-05-10T04:37:00;0;0;
54869;PMS5003;40756;-37.950;145.008;2023-05-10T04:39:30;0;0;
54869;PMS5003;40756;-37.950;145.008;2023-05-10T04:41:59;0;0;
54869;PMS5003;40756;-37.950;145.008;2023-05-10T04:44:30;0;0;
54869;PMS5003;40756;-37.950;145.008;2023-05-10T04:46:59;0;0;
54869;PMS5003;40756;-37.950;145.008;2023-05-10T04:49:29;0;0;
54869;PMS5003;40756;-37.950;145.008;2023-05-10T04:51:58;0;0;
54869;PMS5003;40756;-37.950;145.008;2023-05-10T04:54:29;0;0;
54869;PMS5003;40756;-37.950;145.008;2023-05-10T04:56:58;0;0;
54869;PMS5003;40756;-37.950;145.008;2023-05-10T04:59:28;0;0;
54869;PMS5003;40756;-37.950;145.008;2023-05-10T05:01:58;0;0;
54869;PMS5003;40756;-37.950;145.008;2023-05-10T05:04:27;1;0;
54869;PMS5003;40756;-37.950;145.008;2023-05-10T05:06:57;0;0;
54869;PMS5003;40756;-37.950;145.008;2023-05-10T05:09:27;1;0;
54869;PMS5003;40756;-37.950;145.008;2023-05-10T05:11:56;1;0;
54869;PMS5003;40756;-37.950;145.008;2023-05-10T05:14:26;0;0;
54869;PMS5003;40756;-37.950;145.008;2023-05-10T05:16:56;2;1;
54869;PMS5003;40756;-37.950;145.008;2023-05-10T05:19:25;0;0;
54869;PMS5003;40756;-37.950;145.008;2023-05-10T05:21:55;0;0;
54869;PMS5003;40756;-37.950;145.008;2023-05-10T05:24:25;0;0;
54869;PMS5003;40756;-37.950;145.008;2023-05-10T05:26:54;1;1;
54869;PMS5003;40756;-37.950;145.008;2023-05-10T05:29:24;0;0;
54869;PMS5003;40756;-37.950;145.008;2023-05-10T05:31:53;1;1;
54869;PMS5003;40756;-37.950;145.008;2023-05-10T05:34:23;0;0;
54869;PMS5003;40756;-37.950;145.008;2023-05-10T05:36:53;0;0;
54869;PMS5003;40756;-37.950;145.008;2023-05-10T05:39:22;0;0;
54869;PMS5003;40756;-37.950;145.008;2023-05-10T05:41:52;0;0;
54869;PMS5003;40756;-37.950;145.008;2023-05-10T05:44:22;0;0;
54869;PMS5003;40756;-37.950;145.008;2023-05-10T05:46:51;0;0;
54869;PMS5003;40756;-37.950;145.008;2023-05-10T05:49:22;0;0;
54869;PMS5003;40756;-37.950;145.008;2023-05-10T05:51:51;0;0;
54869;PMS5003;40756;-37.950;145.008;2023-05-10T05:54:21;0;0;
54869;PMS5003;40756;-37.950;145.008;2023-05-10T05:56:53;0;0;
54869;PMS5003;40756;-37.950;145.008;2023-05-10T05:59:23;0;0;
54869;PMS5003;40756;-37.950;145.008;2023-05-10T06:01:52;0;0;
54869;PMS5003;40756;-37.950;145.008;2023-05-10T06:04:22;1;1;
54869;PMS5003;40756;-37.950;145.008;2023-05-10T06:06:52;0;0;
54869;PMS5003;40756;-37.950;145.008;2023-05-10T06:09:21;0;0;
54869;PMS5003;40756;-37.950;145.008;2023-05-10T06:11:51;1;0;
54869;PMS5003;40756;-37.950;145.008;2023-05-10T06:14:21;0;0;
54869;PMS5003;40756;-37.950;145.008;2023-05-10T06:16:50;1;1;
54869;PMS5003;40756;-37.950;145.008;2023-05-10T06:19:20;0;0;
54869;PMS5003;40756;-37.950;145.008;2023-05-10T06:21:49;0;0;
54869;PMS5003;40756;-37.950;145.008;2023-05-10T06:24:19;0;0;
54869;PMS5003;40756;-37.950;145.008;2023-05-10T06:26:49;1;1;
54869;PMS5003;40756;-37.950;145.008;2023-05-10T06:29:18;0;0;
54869;PMS5003;40756;-37.950;145.008;2023-05-10T06:31:48;0;0;
54869;PMS5003;40756;-37.950;145.008;2023-05-10T06:34:18;0;0;
54869;PMS5003;40756;-37.950;145.008;2023-05-10T06:36:47;1;1;
54869;PMS5003;40756;-37.950;145.008;2023-05-10T06:39:17;0;0;
54869;PMS5003;40756;-37.950;145.008;2023-05-10T06:41:47;0;0;
54869;PMS5003;40756;-37.950;145.008;2023-05-10T06:44:17;0;0;
54869;PMS5003;40756;-37.950;145.008;2023-05-10T06:46:47;0;0;
54869;PMS5003;40756;-37.950;145.008;2023-05-10T06:49:16;0;0;
54869;PMS5003;40756;-37.950;145.008;2023-05-10T06:51:46;1;0;
54869;PMS5003;40756;-37.950;145.008;2023-05-10T06:54:16;0;0;
54869;PMS5003;40756;-37.950;145.008;2023-05-10T06:56:45;0;0;
54869;PMS5003;40756;-37.950;145.008;2023-05-10T06:59:16;1;1;
54869;PMS5003;40756;-37.950;145.008;2023-05-10T07:01:45;2;2;
54869;PMS5003;40756;-37.950;145.008;2023-05-10T07:04:15;5;5;
54869;PMS5003;40756;-37.950;145.008;2023-05-10T07:06:45;3;2;
54869;PMS5003;40756;-37.950;145.008;2023-05-10T07:09:14;0;0;
54869;PMS5003;40756;-37.950;145.008;2023-05-10T07:11:44;0;0;
54869;PMS5003;40756;-37.950;145.008;2023-05-10T07:14:14;1;0;
54869;PMS5003;40756;-37.950;145.008;2023-05-10T07:16:43;2;2;
54869;PMS5003;40756;-37.950;145.008;2023-05-10T07:19:13;0;0;
54869;PMS5003;40756;-37.950;145.008;2023-05-10T07:21:43;1;1;
54869;PMS5003;40756;-37.950;145.008;2023-05-10T07:24:12;0;0;
54869;PMS5003;40756;-37.950;145.008;2023-05-10T07:26:42;1;0;
54869;PMS5003;40756;-37.950;145.008;2023-05-10T07:29:12;0;0;
54869;PMS5003;40756;-37.950;145.008;2023-05-10T07:31:41;1;1;
54869;PMS5003;40756;-37.950;145.008;2023-05-10T07:34:11;1;1;
54869;PMS5003;40756;-37.950;145.008;2023-05-10T07:36:40;2;2;
54869;PMS5003;40756;-37.950;145.008;2023-05-10T07:39:10;1;0;
54869;PMS5003;40756;-37.950;145.008;2023-05-10T07:41:40;1;1;
54869;PMS5003;40756;-37.950;145.008;2023-05-10T07:44:09;0;0;
54869;PMS5003;40756;-37.950;145.008;2023-05-10T07:46:39;1;1;
54869;PMS5003;40756;-37.950;145.008;2023-05-10T07:49:09;1;0;
54869;PMS5003;40756;-37.950;145.008;2023-05-10T07:51:38;2;1;
54869;PMS5003;40756;-37.950;145.008;2023-05-10T07:54:08;0;0;
54869;PMS5003;40756;-37.950;145.008;2023-05-10T07:56:38;2;1;
54869;PMS5003;40756;-37.950;145.008;2023-05-10T07:59:07;2;2;
54869;PMS5003;40756;-37.950;145.008;2023-05-10T08:01:38;2;2;
54869;PMS5003;40756;-37.950;145.008;2023-05-10T08:04:08;1;1;
54869;PMS5003;40756;-37.950;145.008;2023-05-10T08:06:37;2;2;
54869;PMS5003;40756;-37.950;145.008;2023-05-10T08:09:07;2;2;
54869;PMS5003;40756;-37.950;145.008;2023-05-10T08:11:37;1;1;
54869;PMS5003;40756;-37.950;145.008;2023-05-10T08:14:06;1;1;
54869;PMS5003;40756;-37.950;145.008;2023-05-10T08:16:36;1;1;
54869;PMS5003;40756;-37.950;145.008;2023-05-10T08:19:06;2;2;
54869;PMS5003;40756;-37.950;145.008;2023-05-10T08:21:35;2;2;
54869;PMS5003;40756;-37.950;145.008;2023-05-10T08:24:05;3;2;
54869;PMS5003;40756;-37.950;145.008;2023-05-10T08:26:35;1;1;
54869;PMS5003;40756;-37.950;145.008;2023-05-10T08:29:05;2;2;
54869;PMS5003;40756;-37.950;145.008;2023-05-10T08:31:34;2;2;
54869;PMS5003;40756;-37.950;145.008;2023-05-10T08:34:04;4;3;
54869;PMS5003;40756;-37.950;145.008;2023-05-10T08:36:33;1;1;
54869;PMS5003;40756;-37.950;145.008;2023-05-10T08:39:03;3;2;
54869;PMS5003;40756;-37.950;145.008;2023-05-10T08:41:33;1;1;
54869;PMS5003;40756;-37.950;145.008;2023-05-10T08:44:06;0;0;
54869;PMS5003;40756;-37.950;145.008;2023-05-10T08:46:37;1;1;
54869;PMS5003;40756;-37.950;145.008;2023-05-10T08:49:08;1;1;
54869;PMS5003;40756;-37.950;145.008;2023-05-10T08:51:40;0;0;
54869;PMS5003;40756;-37.950;145.008;2023-05-10T08:54:17;1;0;
54869;PMS5003;40756;-37.950;145.008;2023-05-10T08:56:47;1;1;
54869;PMS5003;40756;-37.950;145.008;2023-05-10T08:59:16;1;0;
54869;PMS5003;40756;-37.950;145.008;2023-05-10T09:01:47;0;0;
54869;PMS5003;40756;-37.950;145.008;2023-05-10T09:04:17;0;0;
54869;PMS5003;40756;-37.950;145.008;2023-05-10T09:06:48;0;0;
54869;PMS5003;40756;-37.950;145.008;2023-05-10T09:09:18;0;0;
54869;PMS5003;40756;-37.950;145.008;2023-05-10T09:11:48;0;0;
54869;PMS5003;40756;-37.950;145.008;2023-05-10T09:14:19;0;0;
54869;PMS5003;40756;-37.950;145.008;2023-05-10T09:16:50;0;0;
54869;PMS5003;40756;-37.950;145.008;2023-05-10T09:19:20;0;0;
54869;PMS5003;40756;-37.950;145.008;2023-05-10T09:21:50;0;0;
54869;PMS5003;40756;-37.950;145.008;2023-05-10T09:24:20;1;0;
54869;PMS5003;40756;-37.950;145.008;2023-05-10T09:26:53;0;0;
54869;PMS5003;40756;-37.950;145.008;2023-05-10T09:29:26;0;0;
54869;PMS5003;40756;-37.950;145.008;2023-05-10T09:32:06;0;0;
54869;PMS5003;40756;-37.950;145.008;2023-05-10T09:34:36;0;0;
54869;PMS5003;40756;-37.950;145.008;2023-05-10T09:37:05;0;0;
54869;PMS5003;40756;-37.950;145.008;2023-05-10T09:39:36;1;1;
54869;PMS5003;40756;-37.950;145.008;2023-05-10T09:42:07;0;0;
54869;PMS5003;40756;-37.950;145.008;2023-05-10T09:44:37;1;1;
54869;PMS5003;40756;-37.950;145.008;2023-05-10T09:47:07;0;0;
54869;PMS5003;40756;-37.950;145.008;2023-05-10T09:49:36;0;0;
54869;PMS5003;40756;-37.950;145.008;2023-05-10T09:52:06;0;0;
54869;PMS5003;40756;-37.950;145.008;2023-05-10T09:54:36;0;0;
54869;PMS5003;40756;-37.950;145.008;2023-05-10T09:57:19;1;1;
54869;PMS5003;40756;-37.950;145.008;2023-05-10T09:59:49;0;0;
54869;PMS5003;40756;-37.950;145.008;2023-05-10T10:02:20;0;0;
54869;PMS5003;40756;-37.950;145.008;2023-05-10T10:04:55;1;1;
54869;PMS5003;40756;-37.950;145.008;2023-05-10T10:07:25;0;0;
54869;PMS5003;40756;-37.950;145.008;2023-05-10T10:09:54;0;0;
54869;PMS5003;40756;-37.950;145.008;2023-05-10T10:12:24;0;0;
54869;PMS5003;40756;-37.950;145.008;2023-05-10T10:14:54;1;1;
54869;PMS5003;40756;-37.950;145.008;2023-05-10T10:17:24;2;1;
54869;PMS5003;40756;-37.950;145.008;2023-05-10T10:19:58;2;1;
54869;PMS5003;40756;-37.950;145.008;2023-05-10T10:22:30;3;3;
54869;PMS5003;40756;-37.950;145.008;2023-05-10T10:24:59;3;3;
54869;PMS5003;40756;-37.950;145.008;2023-05-10T10:27:32;1;1;
54869;PMS5003;40756;-37.950;145.008;2023-05-10T10:30:13;2;1;
54869;PMS5003;40756;-37.950;145.008;2023-05-10T10:33:10;2;2;
54869;PMS5003;40756;-37.950;145.008;2023-05-10T10:36:04;2;2;
54869;PMS5003;40756;-37.950;145.008;2023-05-10T10:38:38;4;4;
54869;PMS5003;40756;-37.950;145.008;2023-05-10T10:41:29;3;3;
54869;PMS5003;40756;-37.950;145.008;2023-05-10T10:46:14;4;4;
54869;PMS5003;40756;-37.950;145.008;2023-05-10T10:48:48;3;3;
54869;PMS5003;40756;-37.950;145.008;2023-05-10T10:51:19;4;4;
54869;PMS5003;40756;-37.950;145.008;2023-05-10T10:53:49;3;3;
54869;PMS5003;40756;-37.950;145.008;2023-05-10T10:56:18;5;4;
54869;PMS5003;40756;-37.950;145.008;2023-05-10T10:58:51;4;4;
54869;PMS5003;40756;-37.950;145.008;2023-05-10T11:01:27;6;6;
54869;PMS5003;40756;-37.950;145.008;2023-05-10T11:04:18;8;7;
54869;PMS5003;40756;-37.950;145.008;2023-05-10T11:06:47;6;6;
54869;PMS5003;40756;-37.950;145.008;2023-05-10T11:09:17;4;3;
54869;PMS5003;40756;-37.950;145.008;2023-05-10T11:11:51;7;7;
54869;PMS5003;40756;-37.950;145.008;2023-05-10T11:14:22;5;5;
54869;PMS5003;40756;-37.950;145.008;2023-05-10T11:16:52;7;7;
54869;PMS5003;40756;-37.950;145.008;2023-05-10T11:19:22;11;11;
54869;PMS5003;40756;-37.950;145.008;2023-05-10T11:22:12;13;12;
54869;PMS5003;40756;-37.950;145.008;2023-05-10T11:24:49;7;7;
54869;PMS5003;40756;-37.950;145.008;2023-05-10T11:27:25;8;8;
54869;PMS5003;40756;-37.950;145.008;2023-05-10T11:29:54;8;7;
54869;PMS5003;40756;-37.950;145.008;2023-05-10T11:32:24;8;7;
54869;PMS5003;40756;-37.950;145.008;2023-05-10T11:34:54;9;8;
54869;PMS5003;40756;-37.950;145.008;2023-05-10T11:37:24;9;9;
54869;PMS5003;40756;-37.950;145.008;2023-05-10T11:39:56;6;6;
54869;PMS5003;40756;-37.950;145.008;2023-05-10T11:42:26;7;7;
54869;PMS5003;40756;-37.950;145.008;2023-05-10T11:44:56;7;7;
54869;PMS5003;40756;-37.950;145.008;2023-05-10T11:47:27;10;9;
54869;PMS5003;40756;-37.950;145.008;2023-05-10T11:49:57;11;11;
54869;PMS5003;40756;-37.950;145.008;2023-05-10T11:52:26;10;9;
54869;PMS5003;40756;-37.950;145.008;2023-05-10T11:54:57;8;8;
54869;PMS5003;40756;-37.950;145.008;2023-05-10T11:57:27;6;6;
54869;PMS5003;40756;-37.950;145.008;2023-05-10T11:59:57;10;10;
54869;PMS5003;40756;-37.950;145.008;2023-05-10T12:02:28;10;10;
54869;PMS5003;40756;-37.950;145.008;2023-05-10T12:04:58;9;9;
54869;PMS5003;40756;-37.950;145.008;2023-05-10T12:07:28;8;8;
54869;PMS5003;40756;-37.950;145.008;2023-05-10T12:10:06;11;11;
54869;PMS5003;40756;-37.950;145.008;2023-05-10T12:12:38;9;9;
54869;PMS5003;40756;-37.950;145.008;2023-05-10T12:15:12;9;9;
54869;PMS5003;40756;-37.950;145.008;2023-05-10T12:17:46;8;8;
54869;PMS5003;40756;-37.950;145.008;2023-05-10T12:20:18;10;10;
54869;PMS5003;40756;-37.950;145.008;2023-05-10T12:22:50;9;8;
54869;PMS5003;40756;-37.950;145.008;2023-05-10T12:25:22;10;10;
54869;PMS5003;40756;-37.950;145.008;2023-05-10T12:27:56;10;10;
54869;PMS5003;40756;-37.950;145.008;2023-05-10T12:30:27;8;8;
54869;PMS5003;40756;-37.950;145.008;2023-05-10T12:33:00;8;7;
54869;PMS5003;40756;-37.950;145.008;2023-05-10T12:35:31;6;6;
54869;PMS5003;40756;-37.950;145.008;2023-05-10T12:38:01;8;7;
54869;PMS5003;40756;-37.950;145.008;2023-05-10T12:40:54;7;7;
54869;PMS5003;40756;-37.950;145.008;2023-05-10T12:43:24;7;7;
54869;PMS5003;40756;-37.950;145.008;2023-05-10T12:45:54;8;8;
54869;PMS5003;40756;-37.950;145.008;2023-05-10T12:48:24;5;5;
54869;PMS5003;40756;-37.950;145.008;2023-05-10T12:50:53;6;6;
54869;PMS5003;40756;-37.950;145.008;2023-05-10T12:53:23;7;7;
54869;PMS5003;40756;-37.950;145.008;2023-05-10T12:55:53;7;6;
54869;PMS5003;40756;-37.950;145.008;2023-05-10T12:58:22;5;5;
54869;PMS5003;40756;-37.950;145.008;2023-05-10T13:00:52;7;7;
54869;PMS5003;40756;-37.950;145.008;2023-05-10T13:03:22;7;6;
54869;PMS5003;40756;-37.950;145.008;2023-05-10T13:05:52;6;6;
54869;PMS5003;40756;-37.950;145.008;2023-05-10T13:08:21;6;5;
54869;PMS5003;40756;-37.950;145.008;2023-05-10T13:10:51;7;7;
54869;PMS5003;40756;-37.950;145.008;2023-05-10T13:13:21;8;7;
54869;PMS5003;40756;-37.950;145.008;2023-05-10T13:15:51;8;7;
54869;PMS5003;40756;-37.950;145.008;2023-05-10T13:18:20;6;6;
54869;PMS5003;40756;-37.950;145.008;2023-05-10T13:20:50;7;7;
54869;PMS5003;40756;-37.950;145.008;2023-05-10T13:23:21;7;7;
54869;PMS5003;40756;-37.950;145.008;2023-05-10T13:25:50;7;7;
54869;PMS5003;40756;-37.950;145.008;2023-05-10T13:28:20;9;9;
54869;PMS5003;40756;-37.950;145.008;2023-05-10T13:30:50;8;8;
54869;PMS5003;40756;-37.950;145.008;2023-05-10T13:33:20;11;11;
54869;PMS5003;40756;-37.950;145.008;2023-05-10T13:35:49;5;5;
54869;PMS5003;40756;-37.950;145.008;2023-05-10T13:38:19;8;8;
54869;PMS5003;40756;-37.950;145.008;2023-05-10T13:40:49;14;14;
54869;PMS5003;40756;-37.950;145.008;2023-05-10T13:43:18;17;16;
54869;PMS5003;40756;-37.950;145.008;2023-05-10T13:45:48;10;10;
54869;PMS5003;40756;-37.950;145.008;2023-05-10T13:48:18;14;14;
54869;PMS5003;40756;-37.950;145.008;2023-05-10T13:50:47;17;16;
54869;PMS5003;40756;-37.950;145.008;2023-05-10T13:53:17;16;15;
54869;PMS5003;40756;-37.950;145.008;2023-05-10T13:55:47;13;13;
54869;PMS5003;40756;-37.950;145.008;2023-05-10T13:58:17;13;12;
54869;PMS5003;40756;-37.950;145.008;2023-05-10T14:00:47;14;14;
54869;PMS5003;40756;-37.950;145.008;2023-05-10T14:03:16;13;13;
54869;PMS5003;40756;-37.950;145.008;2023-05-10T14:05:46;3;3;
54869;PMS5003;40756;-37.950;145.008;2023-05-10T14:08:16;3;3;
54869;PMS5003;40756;-37.950;145.008;2023-05-10T14:10:46;7;6;
54869;PMS5003;40756;-37.950;145.008;2023-05-10T14:13:16;4;3;
54869;PMS5003;40756;-37.950;145.008;2023-05-10T14:15:46;2;2;
54869;PMS5003;40756;-37.950;145.008;2023-05-10T14:18:15;2;2;
54869;PMS5003;40756;-37.950;145.008;2023-05-10T14:20:45;2;2;
54869;PMS5003;40756;-37.950;145.008;2023-05-10T14:23:15;2;2;
54869;PMS5003;40756;-37.950;145.008;2023-05-10T14:25:44;2;2;
54869;PMS5003;40756;-37.950;145.008;2023-05-10T14:28:14;2;1;
54869;PMS5003;40756;-37.950;145.008;2023-05-10T14:30:44;2;2;
54869;PMS5003;40756;-37.950;145.008;2023-05-10T14:33:14;2;2;
54869;PMS5003;40756;-37.950;145.008;2023-05-10T14:35:44;4;4;
54869;PMS5003;40756;-37.950;145.008;2023-05-10T14:38:13;7;7;
54869;PMS5003;40756;-37.950;145.008;2023-05-10T14:40:43;15;15;
54869;PMS5003;40756;-37.950;145.008;2023-05-10T14:43:12;32;32;
54869;PMS5003;40756;-37.950;145.008;2023-05-10T14:45:42;3;3;
54869;PMS5003;40756;-37.950;145.008;2023-05-10T14:48:11;5;4;
54869;PMS5003;40756;-37.950;145.008;2023-05-10T14:50:41;3;2;
54869;PMS5003;40756;-37.950;145.008;2023-05-10T14:53:11;2;2;
54869;PMS5003;40756;-37.950;145.008;2023-05-10T14:55:41;2;2;
54869;PMS5003;40756;-37.950;145.008;2023-05-10T14:58:10;3;3;
54869;PMS5003;40756;-37.950;145.008;2023-05-10T15:00:40;4;4;
54869;PMS5003;40756;-37.950;145.008;2023-05-10T15:03:10;4;4;
54869;PMS5003;40756;-37.950;145.008;2023-05-10T15:05:40;3;3;
54869;PMS5003;40756;-37.950;145.008;2023-05-10T15:08:10;3;3;
54869;PMS5003;40756;-37.950;145.008;2023-05-10T15:10:40;2;2;
54869;PMS5003;40756;-37.950;145.008;2023-05-10T15:13:09;4;4;
54869;PMS5003;40756;-37.950;145.008;2023-05-10T15:15:39;3;3;
54869;PMS5003;40756;-37.950;145.008;2023-05-10T15:18:09;6;5;
54869;PMS5003;40756;-37.950;145.008;2023-05-10T15:20:38;4;4;
54869;PMS5003;40756;-37.950;145.008;2023-05-10T15:23:08;3;3;
54869;PMS5003;40756;-37.950;145.008;2023-05-10T15:25:38;4;4;
54869;PMS5003;40756;-37.950;145.008;2023-05-10T15:28:08;4;4;
54869;PMS5003;40756;-37.950;145.008;2023-05-10T15:30:38;4;4;
54869;PMS5003;40756;-37.950;145.008;2023-05-10T15:33:07;4;4;
54869;PMS5003;40756;-37.950;145.008;2023-05-10T15:35:37;6;5;
54869;PMS5003;40756;-37.950;145.008;2023-05-10T15:38:07;3;3;
54869;PMS5003;40756;-37.950;145.008;2023-05-10T15:40:37;4;4;
54869;PMS5003;40756;-37.950;145.008;2023-05-10T15:43:06;3;3;
54869;PMS5003;40756;-37.950;145.008;2023-05-10T15:45:36;6;4;
54869;PMS5003;40756;-37.950;145.008;2023-05-10T15:48:06;6;5;
54869;PMS5003;40756;-37.950;145.008;2023-05-10T15:50:36;4;4;
54869;PMS5003;40756;-37.950;145.008;2023-05-10T15:53:05;4;3;
54869;PMS5003;40756;-37.950;145.008;2023-05-10T15:55:35;6;6;
54869;PMS5003;40756;-37.950;145.008;2023-05-10T15:58:05;4;4;
54869;PMS5003;40756;-37.950;145.008;2023-05-10T16:00:35;4;4;
54869;PMS5003;40756;-37.950;145.008;2023-05-10T16:03:05;4;4;
54869;PMS5003;40756;-37.950;145.008;2023-05-10T16:05:34;5;5;
54869;PMS5003;40756;-37.950;145.008;2023-05-10T16:08:04;4;4;
54869;PMS5003;40756;-37.950;145.008;2023-05-10T16:10:34;4;4;
54869;PMS5003;40756;-37.950;145.008;2023-05-10T16:13:04;4;4;
54869;PMS5003;40756;-37.950;145.008;2023-05-10T16:15:34;4;4;
54869;PMS5003;40756;-37.950;145.008;2023-05-10T16:18:04;4;4;
54869;PMS5003;40756;-37.950;145.008;2023-05-10T16:20:34;4;4;
54869;PMS5003;40756;-37.950;145.008;2023-05-10T16:23:04;5;5;
54869;PMS5003;40756;-37.950;145.008;2023-05-10T16:25:34;5;4;
54869;PMS5003;40756;-37.950;145.008;2023-05-10T16:28:04;4;4;